sensor_id;sensor_type;location;lat;lon;timestamp;pressure;altitude;pressure_sealevel;temperature;humidity
71195;BME280;58908;51.426;7.714;2023-07-13T00:00:34;99625.00;;;16.45;100.00
71195;BME280;58908;51.426;7.714;2023-07-13T00:03:01;99637.47;;;16.45;100.00
71195;BME280;58908;51.426;7.714;2023-07-13T00:05:29;99636.50;;;16.46;100.00
71195;BME280;58908;51.426;7.714;2023-07-13T00:07:55;99642.44;;;16.38;100.00
71195;BME280;58908;51.426;7.714;2023-07-13T00:10:22;99634.59;;;16.26;100.00
71195;BME280;58908;51.426;7.714;2023-07-13T00:12:48;99641.13;;;16.22;100.00
71195;BME280;58908;51.426;7.714;2023-07-13T00:15:15;99640.06;;;16.13;100.00
71195;BME280;58908;51.426;7.714;2023-07-13T00:17:42;99641.63;;;16.16;100.00
71195;BME280;58908;51.426;7.714;2023-07-13T00:20:09;99649.28;;;16.09;100.00
71195;BME280;58908;51.426;7.714;2023-07-13T00:22:37;99647.34;;;16.11;100.00
71195;BME280;58908;51.426;7.714;2023-07-13T00:25:04;99651.00;;;15.99;100.00
71195;BME280;58908;51.426;7.714;2023-07-13T00:27:31;99650.00;;;16.00;100.00
71195;BME280;58908;51.426;7.714;2023-07-13T00:29:57;99649.56;;;15.95;100.00
71195;BME280;58908;51.426;7.714;2023-07-13T00:32:23;99642.53;;;15.94;100.00
71195;BME280;58908;51.426;7.714;2023-07-13T00:34:50;99644.47;;;15.92;100.00
71195;BME280;58908;51.426;7.714;2023-07-13T00:37:17;99640.84;;;15.82;100.00
71195;BME280;58908;51.426;7.714;2023-07-13T00:39:45;99636.50;;;15.81;100.00
71195;BME280;58908;51.426;7.714;2023-07-13T00:42:11;99644.38;;;15.72;100.00
71195;BME280;58908;51.426;7.714;2023-07-13T00:44:37;99642.34;;;15.64;100.00
71195;BME280;58908;51.426;7.714;2023-07-13T00:47:05;99644.63;;;15.58;100.00
71195;BME280;58908;51.426;7.714;2023-07-13T00:49:32;99642.19;;;15.55;100.00
71195;BME280;58908;51.426;7.714;2023-07-13T00:52:00;99640.75;;;15.51;100.00
71195;BME280;58908;51.426;7.714;2023-07-13T00:54:29;99637.63;;;15.46;100.00
71195;BME280;58908;51.426;7.714;2023-07-13T00:56:59;99638.34;;;15.48;100.00
71195;BME280;58908;51.426;7.714;2023-07-13T00:59:27;99636.03;;;15.43;100.00
71195;BME280;58908;51.426;7.714;2023-07-13T01:01:53;99629.88;;;15.43;100.00
71195;BME280;58908;51.426;7.714;2023-07-13T01:04:20;99628.19;;;15.53;100.00
71195;BME280;58908;51.426;7.714;2023-07-13T01:06:46;99623.22;;;15.48;100.00
71195;BME280;58908;51.426;7.714;2023-07-13T01:09:13;99627.47;;;15.51;100.00
71195;BME280;58908;51.426;7.714;2023-07-13T01:11:41;99627.72;;;15.48;100.00
71195;BME280;58908;51.426;7.714;2023-07-13T01:14:08;99630.72;;;15.43;100.00
71195;BME280;58908;51.426;7.714;2023-07-13T01:16:35;99637.63;;;15.35;100.00
71195;BME280;58908;51.426;7.714;2023-07-13T01:19:03;99636.75;;;15.34;100.00
71195;BME280;58908;51.426;7.714;2023-07-13T01:21:33;99631.69;;;15.31;100.00
71195;BME280;58908;51.426;7.714;2023-07-13T01:23:59;99626.25;;;15.44;100.00
71195;BME280;58908;51.426;7.714;2023-07-13T01:26:27;99634.78;;;15.25;100.00
71195;BME280;58908;51.426;7.714;2023-07-13T01:28:53;99634.31;;;15.20;100.00
71195;BME280;58908;51.426;7.714;2023-07-13T01:31:21;99637.91;;;15.08;100.00
71195;BME280;58908;51.426;7.714;2023-07-13T01:33:47;99638.16;;;15.05;100.00
71195;BME280;58908;51.426;7.714;2023-07-13T01:36:14;99638.53;;;15.12;100.00
71195;BME280;58908;51.426;7.714;2023-07-13T01:38:42;99642.53;;;15.17;100.00
71195;BME280;58908;51.426;7.714;2023-07-13T01:41:08;99637.69;;;15.22;100.00
71195;BME280;58908;51.426;7.714;2023-07-13T01:43:34;99637.00;;;15.31;100.00
71195;BME280;58908;51.426;7.714;2023-07-13T01:46:00;99632.16;;;15.36;100.00
71195;BME280;58908;51.426;7.714;2023-07-13T01:48:27;99626.75;;;15.38;100.00
71195;BME280;58908;51.426;7.714;2023-07-13T01:50:53;99628.28;;;15.29;100.00
71195;BME280;58908;51.426;7.714;2023-07-13T01:53:19;99621.28;;;15.28;100.00
71195;BME280;58908;51.426;7.714;2023-07-13T01:55:47;99633.94;;;15.25;100.00
71195;BME280;58908;51.426;7.714;2023-07-13T01:58:13;99642.03;;;15.23;100.00
71195;BME280;58908;51.426;7.714;2023-07-13T02:00:39;99640.69;;;15.18;100.00
71195;BME280;58908;51.426;7.714;2023-07-13T02:03:05;99643.84;;;15.12;100.00
71195;BME280;58908;51.426;7.714;2023-07-13T02:05:32;99638.75;;;15.09;100.00
71195;BME280;58908;51.426;7.714;2023-07-13T02:07:58;99639.13;;;15.15;100.00
71195;BME280;58908;51.426;7.714;2023-07-13T02:10:24;99633.81;;;15.15;100.00
71195;BME280;58908;51.426;7.714;2023-07-13T02:12:52;99635.13;;;15.10;100.00
71195;BME280;58908;51.426;7.714;2023-07-13T02:15:18;99639.00;;;15.06;100.00
71195;BME280;58908;51.426;7.714;2023-07-13T02:17:44;99641.19;;;15.12;100.00
71195;BME280;58908;51.426;7.714;2023-07-13T02:20:11;99642.03;;;15.12;100.00
71195;BME280;58908;51.426;7.714;2023-07-13T02:22:37;99638.88;;;15.07;100.00
71195;BME280;58908;51.426;7.714;2023-07-13T02:25:03;99638.16;;;15.05;100.00
71195;BME280;58908;51.426;7.714;2023-07-13T02:27:30;99643.22;;;15.08;100.00
71195;BME280;58908;51.426;7.714;2023-07-13T02:29:58;99644.66;;;15.01;100.00
71195;BME280;58908;51.426;7.714;2023-07-13T02:32:24;99639.69;;;14.97;100.00
71195;BME280;58908;51.426;7.714;2023-07-13T02:34:51;99643.06;;;14.99;100.00
71195;BME280;58908;51.426;7.714;2023-07-13T02:37:18;99637.53;;;14.91;100.00
71195;BME280;58908;51.426;7.714;2023-07-13T02:39:44;99632.22;;;14.91;100.00
71195;BME280;58908;51.426;7.714;2023-07-13T02:42:10;99645.94;;;14.85;100.00
71195;BME280;58908;51.426;7.714;2023-07-13T02:44:37;99643.44;;;14.83;100.00
71195;BME280;58908;51.426;7.714;2023-07-13T02:47:04;99633.97;;;14.79;100.00
71195;BME280;58908;51.426;7.714;2023-07-13T02:49:31;99640.34;;;14.77;100.00
71195;BME280;58908;51.426;7.714;2023-07-13T02:51:57;99636.34;;;14.71;100.00
71195;BME280;58908;51.426;7.714;2023-07-13T02:54:23;99631.44;;;14.67;100.00
71195;BME280;58908;51.426;7.714;2023-07-13T02:56:50;99635.53;;;14.71;100.00
71195;BME280;58908;51.426;7.714;2023-07-13T02:59:16;99648.44;;;14.64;100.00
71195;BME280;58908;51.426;7.714;2023-07-13T03:01:42;99642.97;;;14.66;100.00
71195;BME280;58908;51.426;7.714;2023-07-13T03:04:10;99643.59;;;14.69;100.00
71195;BME280;58908;51.426;7.714;2023-07-13T03:06:37;99649.91;;;14.79;100.00
71195;BME280;58908;51.426;7.714;2023-07-13T03:09:03;99646.41;;;14.68;100.00
71195;BME280;58908;51.426;7.714;2023-07-13T03:11:29;99645.53;;;14.67;100.00
71195;BME280;58908;51.426;7.714;2023-07-13T03:13:56;99645.44;;;14.69;100.00
71195;BME280;58908;51.426;7.714;2023-07-13T03:16:22;99641.47;;;14.74;100.00
71195;BME280;58908;51.426;7.714;2023-07-13T03:18:49;99648.28;;;14.66;100.00
71195;BME280;58908;51.426;7.714;2023-07-13T03:21:17;99648.91;;;14.69;100.00
71195;BME280;58908;51.426;7.714;2023-07-13T03:23:43;99656.66;;;14.72;100.00
71195;BME280;58908;51.426;7.714;2023-07-13T03:26:10;99661.47;;;14.67;100.00
71195;BME280;58908;51.426;7.714;2023-07-13T03:28:38;99662.13;;;14.82;100.00
71195;BME280;58908;51.426;7.714;2023-07-13T03:31:05;99663.66;;;14.73;100.00
71195;BME280;58908;51.426;7.714;2023-07-13T03:33:32;99658.84;;;14.78;100.00
71195;BME280;58908;51.426;7.714;2023-07-13T03:35:58;99659.72;;;14.79;100.00
71195;BME280;58908;51.426;7.714;2023-07-13T03:38:26;99657.00;;;14.68;100.00
71195;BME280;58908;51.426;7.714;2023-07-13T03:40:52;99665.56;;;14.71;100.00
71195;BME280;58908;51.426;7.714;2023-07-13T03:43:18;99682.69;;;14.67;100.00
71195;BME280;58908;51.426;7.714;2023-07-13T03:45:45;99684.06;;;14.73;100.00
71195;BME280;58908;51.426;7.714;2023-07-13T03:48:11;99686.72;;;14.73;100.00
71195;BME280;58908;51.426;7.714;2023-07-13T03:50:38;99676.94;;;14.73;100.00
71195;BME280;58908;51.426;7.714;2023-07-13T03:53:04;99685.28;;;14.80;100.00
71195;BME280;58908;51.426;7.714;2023-07-13T03:55:31;99681.78;;;14.79;100.00
71195;BME280;58908;51.426;7.714;2023-07-13T03:57:59;99684.72;;;14.87;100.00
71195;BME280;58908;51.426;7.714;2023-07-13T04:00:25;99682.06;;;14.87;100.00
71195;BME280;58908;51.426;7.714;2023-07-13T04:02:51;99672.75;;;14.82;100.00
71195;BME280;58908;51.426;7.714;2023-07-13T04:05:18;99685.44;;;14.89;100.00
71195;BME280;58908;51.426;7.714;2023-07-13T04:07:44;99684.72;;;14.87;100.00
71195;BME280;58908;51.426;7.714;2023-07-13T04:10:11;99678.81;;;14.95;100.00
71195;BME280;58908;51.426;7.714;2023-07-13T04:12:38;99690.31;;;14.95;100.00
71195;BME280;58908;51.426;7.714;2023-07-13T04:15:05;99687.66;;;14.95;100.00
71195;BME280;58908;51.426;7.714;2023-07-13T04:17:31;99686.78;;;14.95;100.00
71195;BME280;58908;51.426;7.714;2023-07-13T04:19:58;99686.81;;;15.06;100.00
71195;BME280;58908;51.426;7.714;2023-07-13T04:22:24;99697.69;;;15.03;100.00
71195;BME280;58908;51.426;7.714;2023-07-13T04:24:50;99702.28;;;15.01;100.00
71195;BME280;58908;51.426;7.714;2023-07-13T04:27:17;99690.34;;;15.06;100.00
71195;BME280;58908;51.426;7.714;2023-07-13T04:29:45;99697.97;;;15.11;100.00
71195;BME280;58908;51.426;7.714;2023-07-13T04:32:11;99699.75;;;15.10;100.00
71195;BME280;58908;51.426;7.714;2023-07-13T04:34:37;99702.06;;;15.15;100.00
71195;BME280;58908;51.426;7.714;2023-07-13T04:37:03;99703.03;;;15.14;100.00
71195;BME280;58908;51.426;7.714;2023-07-13T04:39:30;99693.50;;;15.22;100.00
71195;BME280;58908;51.426;7.714;2023-07-13T04:41:56;99694.72;;;15.29;100.00
71195;BME280;58908;51.426;7.714;2023-07-13T04:44:23;99693.44;;;15.35;100.00
71195;BME280;58908;51.426;7.714;2023-07-13T04:46:50;99696.09;;;15.35;100.00
71195;BME280;58908;51.426;7.714;2023-07-13T04:49:17;99691.13;;;15.30;100.00
71195;BME280;58908;51.426;7.714;2023-07-13T04:51:43;99695.00;;;15.37;100.00
71195;BME280;58908;51.426;7.714;2023-07-13T04:54:09;99695.13;;;15.36;100.00
71195;BME280;58908;51.426;7.714;2023-07-13T04:56:35;99694.28;;;15.46;100.00
71195;BME280;58908;51.426;7.714;2023-07-13T04:59:02;99697.91;;;15.56;100.00
71195;BME280;58908;51.426;7.714;2023-07-13T05:01:28;99705.78;;;15.58;100.00
71195;BME280;58908;51.426;7.714;2023-07-13T05:03:55;99703.97;;;15.58;100.00
71195;BME280;58908;51.426;7.714;2023-07-13T05:06:24;99706.41;;;15.61;100.00
71195;BME280;58908;51.426;7.714;2023-07-13T05:08:50;99699.63;;;15.68;100.00
71195;BME280;58908;51.426;7.714;2023-07-13T05:11:17;99699.75;;;15.78;100.00
71195;BME280;58908;51.426;7.714;2023-07-13T05:13:44;99701.56;;;15.77;100.00
71195;BME280;58908;51.426;7.714;2023-07-13T05:16:10;99706.88;;;15.88;100.00
71195;BME280;58908;51.426;7.714;2023-07-13T05:18:36;99709.63;;;15.87;100.00
71195;BME280;58908;51.426;7.714;2023-07-13T05:21:05;99711.34;;;15.88;100.00
71195;BME280;58908;51.426;7.714;2023-07-13T05:23:32;99707.59;;;15.90;100.00
71195;BME280;58908;51.426;7.714;2023-07-13T05:25:59;99711.81;;;16.04;100.00
71195;BME280;58908;51.426;7.714;2023-07-13T05:28:26;99716.78;;;15.97;100.00
71195;BME280;58908;51.426;7.714;2023-07-13T05:30:52;99727.53;;;16.07;100.00
71195;BME280;58908;51.426;7.714;2023-07-13T05:33:20;99723.44;;;16.14;100.00
71195;BME280;58908;51.426;7.714;2023-07-13T05:35:46;99730.78;;;16.21;100.00
71195;BME280;58908;51.426;7.714;2023-07-13T05:38:14;99727.16;;;16.22;100.00
71195;BME280;58908;51.426;7.714;2023-07-13T05:40:42;99738.66;;;16.34;100.00
71195;BME280;58908;51.426;7.714;2023-07-13T05:43:08;99736.47;;;16.39;100.00
71195;BME280;58908;51.426;7.714;2023-07-13T05:45:34;99735.72;;;16.48;100.00
71195;BME280;58908;51.426;7.714;2023-07-13T05:48:01;99733.34;;;16.45;100.00
71195;BME280;58908;51.426;7.714;2023-07-13T05:50:27;99739.00;;;16.51;100.00
71195;BME280;58908;51.426;7.714;2023-07-13T05:52:53;99741.88;;;16.48;100.00
71195;BME280;58908;51.426;7.714;2023-07-13T05:55:21;99734.00;;;16.58;100.00
71195;BME280;58908;51.426;7.714;2023-07-13T05:57:47;99735.53;;;16.71;100.00
71195;BME280;58908;51.426;7.714;2023-07-13T06:00:14;99742.94;;;16.68;100.00
71195;BME280;58908;51.426;7.714;2023-07-13T06:02:40;99741.78;;;16.81;100.00
71195;BME280;58908;51.426;7.714;2023-07-13T06:05:07;99749.19;;;16.89;100.00
71195;BME280;58908;51.426;7.714;2023-07-13T06:07:33;99745.72;;;16.97;100.00
71195;BME280;58908;51.426;7.714;2023-07-13T06:10:00;99753.16;;;17.14;100.00
71195;BME280;58908;51.426;7.714;2023-07-13T06:12:27;99759.03;;;17.29;100.00
71195;BME280;58908;51.426;7.714;2023-07-13T06:14:54;99756.22;;;17.30;100.00
71195;BME280;58908;51.426;7.714;2023-07-13T06:17:20;99754.06;;;17.35;100.00
71195;BME280;58908;51.426;7.714;2023-07-13T06:19:46;99754.81;;;17.47;100.00
71195;BME280;58908;51.426;7.714;2023-07-13T06:22:12;99747.72;;;17.57;100.00
71195;BME280;58908;51.426;7.714;2023-07-13T06:24:39;99750.56;;;17.55;100.00
71195;BME280;58908;51.426;7.714;2023-07-13T06:27:05;99747.88;;;17.85;100.00
71195;BME280;58908;51.426;7.714;2023-07-13T06:29:33;99744.84;;;18.78;100.00
71195;BME280;58908;51.426;7.714;2023-07-13T06:31:59;99737.22;;;19.59;94.11
71195;BME280;58908;51.426;7.714;2023-07-13T06:34:25;99732.38;;;20.18;91.07
71195;BME280;58908;51.426;7.714;2023-07-13T06:36:52;99742.06;;;20.73;86.81
71195;BME280;58908;51.426;7.714;2023-07-13T06:39:18;99745.66;;;20.64;85.92
71195;BME280;58908;51.426;7.714;2023-07-13T06:41:44;99749.19;;;20.37;85.76
71195;BME280;58908;51.426;7.714;2023-07-13T06:44:10;99754.28;;;20.40;86.73
71195;BME280;58908;51.426;7.714;2023-07-13T06:46:38;99763.25;;;20.22;86.61
71195;BME280;58908;51.426;7.714;2023-07-13T06:49:04;99753.03;;;20.35;85.75
71195;BME280;58908;51.426;7.714;2023-07-13T06:51:31;99758.13;;;20.55;85.79
71195;BME280;58908;51.426;7.714;2023-07-13T06:53:57;99761.53;;;20.75;84.14
71195;BME280;58908;51.426;7.714;2023-07-13T06:56:23;99761.34;;;19.86;86.95
71195;BME280;58908;51.426;7.714;2023-07-13T06:58:49;99755.94;;;20.95;83.85
71195;BME280;58908;51.426;7.714;2023-07-13T07:01:16;99756.28;;;21.35;81.19
71195;BME280;58908;51.426;7.714;2023-07-13T07:03:43;99764.50;;;21.34;81.72
71195;BME280;58908;51.426;7.714;2023-07-13T07:06:12;99765.78;;;21.12;80.61
71195;BME280;58908;51.426;7.714;2023-07-13T07:08:39;99749.56;;;21.74;79.29
71195;BME280;58908;51.426;7.714;2023-07-13T07:11:05;99746.03;;;21.99;77.43
71195;BME280;58908;51.426;7.714;2023-07-13T07:13:31;99745.88;;;22.01;77.05
71195;BME280;58908;51.426;7.714;2023-07-13T07:15:58;99736.97;;;22.91;73.27
71195;BME280;58908;51.426;7.714;2023-07-13T07:18:25;99738.22;;;23.36;71.26
71195;BME280;58908;51.426;7.714;2023-07-13T07:20:52;99746.28;;;23.28;71.32
71195;BME280;58908;51.426;7.714;2023-07-13T07:23:19;99749.97;;;23.11;71.83
71195;BME280;58908;51.426;7.714;2023-07-13T07:25:45;99753.63;;;23.10;70.37
71195;BME280;58908;51.426;7.714;2023-07-13T07:28:12;99758.50;;;22.91;71.38
71195;BME280;58908;51.426;7.714;2023-07-13T07:30:41;99762.72;;;22.44;73.10
71195;BME280;58908;51.426;7.714;2023-07-13T07:33:07;99770.53;;;21.36;76.16
71195;BME280;58908;51.426;7.714;2023-07-13T07:35:34;99766.28;;;22.52;74.62
71195;BME280;58908;51.426;7.714;2023-07-13T07:38:01;99755.69;;;23.00;71.16
71195;BME280;58908;51.426;7.714;2023-07-13T07:40:28;99747.78;;;23.71;68.50
71195;BME280;58908;51.426;7.714;2023-07-13T07:42:54;99745.22;;;24.48;66.27
71195;BME280;58908;51.426;7.714;2023-07-13T07:45:20;99749.50;;;23.56;68.84
71195;BME280;58908;51.426;7.714;2023-07-13T07:47:47;99739.84;;;24.56;65.51
71195;BME280;58908;51.426;7.714;2023-07-13T07:50:13;99742.06;;;25.05;64.34
71195;BME280;58908;51.426;7.714;2023-07-13T07:52:39;99734.03;;;24.28;63.21
71195;BME280;58908;51.426;7.714;2023-07-13T07:55:07;99747.22;;;24.92;64.64
71195;BME280;58908;51.426;7.714;2023-07-13T07:57:35;99741.34;;;24.04;63.35
71195;BME280;58908;51.426;7.714;2023-07-13T08:00:01;99746.25;;;23.76;66.43
71195;BME280;58908;51.426;7.714;2023-07-13T08:02:28;99741.59;;;24.33;64.48
71195;BME280;58908;51.426;7.714;2023-07-13T08:04:54;99758.03;;;23.11;68.19
71195;BME280;58908;51.426;7.714;2023-07-13T08:07:20;99760.31;;;22.74;70.27
71195;BME280;58908;51.426;7.714;2023-07-13T08:09:46;99762.59;;;21.69;72.50
71195;BME280;58908;51.426;7.714;2023-07-13T08:12:14;99754.88;;;23.48;70.15
71195;BME280;58908;51.426;7.714;2023-07-13T08:14:40;99760.94;;;23.18;70.82
71195;BME280;58908;51.426;7.714;2023-07-13T08:17:06;99762.88;;;22.92;70.17
71195;BME280;58908;51.426;7.714;2023-07-13T08:19:33;99768.25;;;21.84;73.67
71195;BME280;58908;51.426;7.714;2023-07-13T08:21:59;99767.13;;;22.53;74.97
71195;BME280;58908;51.426;7.714;2023-07-13T08:24:25;99756.16;;;22.88;71.33
71195;BME280;58908;51.426;7.714;2023-07-13T08:26:51;99756.38;;;23.74;70.32
71195;BME280;58908;51.426;7.714;2023-07-13T08:29:20;99751.47;;;24.02;67.08
71195;BME280;58908;51.426;7.714;2023-07-13T08:31:46;99746.91;;;24.49;64.99
71195;BME280;58908;51.426;7.714;2023-07-13T08:34:12;99764.41;;;22.19;70.79
71195;BME280;58908;51.426;7.714;2023-07-13T08:36:39;99780.22;;;21.11;75.48
71195;BME280;58908;51.426;7.714;2023-07-13T08:39:06;99781.34;;;21.61;76.58
71195;BME280;58908;51.426;7.714;2023-07-13T08:41:32;99779.84;;;21.24;75.72
71195;BME280;58908;51.426;7.714;2023-07-13T08:43:59;99776.53;;;21.12;78.05
71195;BME280;58908;51.426;7.714;2023-07-13T08:46:31;99752.41;;;22.81;71.36
71195;BME280;58908;51.426;7.714;2023-07-13T08:48:58;99754.38;;;23.52;69.31
71195;BME280;58908;51.426;7.714;2023-07-13T08:51:28;99746.59;;;24.44;66.55
71195;BME280;58908;51.426;7.714;2023-07-13T08:53:57;99735.69;;;24.76;64.96
71195;BME280;58908;51.426;7.714;2023-07-13T08:56:26;99734.53;;;24.92;64.00
71195;BME280;58908;51.426;7.714;2023-07-13T08:58:55;99735.72;;;24.68;62.43
71195;BME280;58908;51.426;7.714;2023-07-13T09:01:23;99722.22;;;24.68;60.88
71195;BME280;58908;51.426;7.714;2023-07-13T09:04:00;99741.91;;;23.11;64.79
71195;BME280;58908;51.426;7.714;2023-07-13T09:06:31;99741.03;;;23.99;66.37
71195;BME280;58908;51.426;7.714;2023-07-13T09:09:01;99730.06;;;24.55;62.69
71195;BME280;58908;51.426;7.714;2023-07-13T09:11:36;99728.81;;;24.95;61.63
71195;BME280;58908;51.426;7.714;2023-07-13T09:14:16;99733.00;;;24.29;62.30
71195;BME280;58908;51.426;7.714;2023-07-13T09:16:46;99740.97;;;25.22;63.03
71195;BME280;58908;51.426;7.714;2023-07-13T09:19:16;99740.28;;;25.20;60.10
71195;BME280;58908;51.426;7.714;2023-07-13T09:21:47;99735.81;;;25.04;60.83
71195;BME280;58908;51.426;7.714;2023-07-13T09:24:28;99744.69;;;24.60;62.45
71195;BME280;58908;51.426;7.714;2023-07-13T09:26:55;99755.06;;;24.33;63.29
71195;BME280;58908;51.426;7.714;2023-07-13T09:29:22;99754.81;;;24.66;61.58
71195;BME280;58908;51.426;7.714;2023-07-13T09:31:52;99748.28;;;25.36;59.41
71195;BME280;58908;51.426;7.714;2023-07-13T09:34:21;99759.63;;;24.71;64.51
71195;BME280;58908;51.426;7.714;2023-07-13T09:36:47;99756.53;;;23.81;62.51
71195;BME280;58908;51.426;7.714;2023-07-13T09:39:24;99763.78;;;23.32;64.02
71195;BME280;58908;51.426;7.714;2023-07-13T09:41:53;99764.56;;;23.01;65.05
71195;BME280;58908;51.426;7.714;2023-07-13T09:44:27;99773.56;;;21.58;70.46
71195;BME280;58908;51.426;7.714;2023-07-13T09:46:56;99785.63;;;21.54;72.01
71195;BME280;58908;51.426;7.714;2023-07-13T09:49:24;99783.19;;;21.43;71.28
71195;BME280;58908;51.426;7.714;2023-07-13T09:51:57;99781.69;;;21.84;70.75
71195;BME280;58908;51.426;7.714;2023-07-13T09:54:24;99774.56;;;23.64;65.91
71195;BME280;58908;51.426;7.714;2023-07-13T09:56:53;99761.09;;;23.72;63.45
71195;BME280;58908;51.426;7.714;2023-07-13T09:59:21;99770.69;;;23.35;63.94
71195;BME280;58908;51.426;7.714;2023-07-13T10:01:49;99769.13;;;24.12;65.30
71195;BME280;58908;51.426;7.714;2023-07-13T10:04:17;99767.66;;;25.09;61.69
71195;BME280;58908;51.426;7.714;2023-07-13T10:06:45;99764.66;;;25.34;62.54
71195;BME280;58908;51.426;7.714;2023-07-13T10:09:14;99744.16;;;26.93;56.10
71195;BME280;58908;51.426;7.714;2023-07-13T10:11:41;99734.94;;;26.08;55.43
71195;BME280;58908;51.426;7.714;2023-07-13T10:14:11;99756.22;;;25.52;58.96
71195;BME280;58908;51.426;7.714;2023-07-13T10:16:38;99759.22;;;23.81;59.88
71195;BME280;58908;51.426;7.714;2023-07-13T10:19:10;99756.81;;;24.64;60.05
71195;BME280;58908;51.426;7.714;2023-07-13T10:21:39;99755.88;;;23.15;61.55
71195;BME280;58908;51.426;7.714;2023-07-13T10:24:12;99756.06;;;24.40;61.01
71195;BME280;58908;51.426;7.714;2023-07-13T10:26:42;99758.63;;;24.33;61.07
71195;BME280;58908;51.426;7.714;2023-07-13T10:29:11;99762.38;;;24.16;62.18
71195;BME280;58908;51.426;7.714;2023-07-13T10:31:40;99761.25;;;23.95;60.93
71195;BME280;58908;51.426;7.714;2023-07-13T10:34:08;99756.81;;;24.64;60.06
71195;BME280;58908;51.426;7.714;2023-07-13T10:36:37;99756.41;;;25.05;57.59
71195;BME280;58908;51.426;7.714;2023-07-13T10:39:04;99762.38;;;22.96;61.18
71195;BME280;58908;51.426;7.714;2023-07-13T10:41:33;99775.94;;;22.37;63.83
71195;BME280;58908;51.426;7.714;2023-07-13T10:44:01;99776.94;;;22.62;63.98
71195;BME280;58908;51.426;7.714;2023-07-13T10:46:28;99770.19;;;23.87;60.18
71195;BME280;58908;51.426;7.714;2023-07-13T10:48:56;99765.25;;;24.61;58.97
71195;BME280;58908;51.426;7.714;2023-07-13T10:51:24;99760.50;;;24.25;57.85
71195;BME280;58908;51.426;7.714;2023-07-13T10:56:38;99775.91;;;23.20;62.05
71195;BME280;58908;51.426;7.714;2023-07-13T10:59:10;99780.13;;;23.31;63.37
71195;BME280;58908;51.426;7.714;2023-07-13T11:01:40;99789.88;;;23.24;64.18
71195;BME280;58908;51.426;7.714;2023-07-13T11:04:08;99774.59;;;23.56;61.22
71195;BME280;58908;51.426;7.714;2023-07-13T11:06:46;99782.13;;;23.77;61.81
71195;BME280;58908;51.426;7.714;2023-07-13T11:09:18;99797.97;;;23.72;63.55
71195;BME280;58908;51.426;7.714;2023-07-13T11:11:46;99798.31;;;23.45;62.54
71195;BME280;58908;51.426;7.714;2023-07-13T11:14:26;99776.72;;;24.17;59.14
71195;BME280;58908;51.426;7.714;2023-07-13T11:16:52;99787.56;;;23.85;60.41
71195;BME280;58908;51.426;7.714;2023-07-13T11:22:13;99778.00;;;22.93;60.80
71195;BME280;58908;51.426;7.714;2023-07-13T11:24:50;99785.25;;;23.08;62.86
71195;BME280;58908;51.426;7.714;2023-07-13T11:27:25;99770.53;;;24.55;58.47
71195;BME280;58908;51.426;7.714;2023-07-13T11:29:57;99773.09;;;24.32;58.98
71195;BME280;58908;51.426;7.714;2023-07-13T11:32:32;99767.00;;;25.37;56.72
71195;BME280;58908;51.426;7.714;2023-07-13T11:34:58;99770.31;;;24.94;57.25
71195;BME280;58908;51.426;7.714;2023-07-13T11:37:25;99763.72;;;24.67;55.21
71195;BME280;58908;51.426;7.714;2023-07-13T11:39:53;99771.16;;;24.95;56.89
71195;BME280;58908;51.426;7.714;2023-07-13T11:42:20;99778.06;;;23.81;56.90
71195;BME280;58908;51.426;7.714;2023-07-13T11:44:50;99781.25;;;23.12;58.19
71195;BME280;58908;51.426;7.714;2023-07-13T11:47:19;99788.91;;;22.83;60.12
71195;BME280;58908;51.426;7.714;2023-07-13T11:49:48;99803.09;;;22.26;62.46
71195;BME280;58908;51.426;7.714;2023-07-13T11:52:16;99807.47;;;22.53;64.77
71195;BME280;58908;51.426;7.714;2023-07-13T11:54:49;99808.34;;;22.36;65.45
71195;BME280;58908;51.426;7.714;2023-07-13T11:57:27;99800.22;;;21.95;65.98
71195;BME280;58908;51.426;7.714;2023-07-13T11:59:55;99797.78;;;23.17;64.20
71195;BME280;58908;51.426;7.714;2023-07-13T12:02:25;99779.59;;;24.07;61.18
71195;BME280;58908;51.426;7.714;2023-07-13T12:04:52;99774.59;;;23.56;60.81
71195;BME280;58908;51.426;7.714;2023-07-13T12:07:18;99787.69;;;23.43;61.37
71195;BME280;58908;51.426;7.714;2023-07-13T12:09:45;99796.75;;;23.18;61.38
71195;BME280;58908;51.426;7.714;2023-07-13T12:12:11;99802.00;;;23.20;64.70
71195;BME280;58908;51.426;7.714;2023-07-13T12:14:38;99787.13;;;23.08;62.38
71195;BME280;58908;51.426;7.714;2023-07-13T12:17:09;99791.75;;;22.82;62.42
71195;BME280;58908;51.426;7.714;2023-07-13T12:19:39;99791.22;;;22.70;63.34
71195;BME280;58908;51.426;7.714;2023-07-13T12:22:08;99778.94;;;23.25;61.10
71195;BME280;58908;51.426;7.714;2023-07-13T12:24:36;99777.59;;;23.61;60.71
71195;BME280;58908;51.426;7.714;2023-07-13T12:27:03;99768.69;;;23.61;59.12
71195;BME280;58908;51.426;7.714;2023-07-13T12:29:31;99763.44;;;23.75;58.44
71195;BME280;58908;51.426;7.714;2023-07-13T12:31:58;99774.03;;;24.01;60.94
71195;BME280;58908;51.426;7.714;2023-07-13T12:34:26;99771.09;;;24.34;61.47
71195;BME280;58908;51.426;7.714;2023-07-13T12:36:53;99752.63;;;24.07;57.56
71195;BME280;58908;51.426;7.714;2023-07-13T12:39:21;99779.22;;;24.10;58.50
71195;BME280;58908;51.426;7.714;2023-07-13T12:41:48;99772.06;;;23.63;59.52
71195;BME280;58908;51.426;7.714;2023-07-13T12:44:16;99769.50;;;23.53;57.33
71195;BME280;58908;51.426;7.714;2023-07-13T12:46:53;99766.66;;;23.47;56.93
71195;BME280;58908;51.426;7.714;2023-07-13T12:49:21;99767.50;;;23.63;56.89
71195;BME280;58908;51.426;7.714;2023-07-13T12:51:50;99756.06;;;23.61;55.20
71195;BME280;58908;51.426;7.714;2023-07-13T12:54:21;99766.31;;;23.74;57.20
71195;BME280;58908;51.426;7.714;2023-07-13T12:56:48;99763.28;;;23.77;55.14
71195;BME280;58908;51.426;7.714;2023-07-13T12:59:17;99758.41;;;23.72;53.25
71195;BME280;58908;51.426;7.714;2023-07-13T13:01:45;99758.88;;;23.92;53.15